createdAt,value
2018-12-22T00:00:06.805Z,86.20
2018-12-22T00:05:07.500Z,86.10
2018-12-22T00:10:06.218Z,86.50
2018-12-22T00:15:05.087Z,86.10
2018-12-22T00:20:04.058Z,85.10
2018-12-22T00:25:02.921Z,85.00
2018-12-22T00:30:01.700Z,84.10
2018-12-22T00:35:00.461Z,85.10
2018-12-22T00:39:59.279Z,84.50
2018-12-22T00:44:58.140Z,85.00
2018-12-22T00:49:56.841Z,85.50
2018-12-22T00:54:55.541Z,85.30
2018-12-22T00:59:54.385Z,85.30
2018-12-22T01:04:53.113Z,85.20
2018-12-22T01:10:44.276Z,85.50
2018-12-22T01:15:44.882Z,85.20
2018-12-22T01:21:01.167Z,85.10
2018-12-22T01:25:59.861Z,84.80
2018-12-22T01:30:58.721Z,84.50
2018-12-22T01:35:57.434Z,85.30
2018-12-22T01:40:56.226Z,85.50
2018-12-22T01:45:55.076Z,85.20
2018-12-22T01:50:53.863Z,85.20
2018-12-22T01:55:52.653Z,85.40
2018-12-22T02:00:51.353Z,85.50
2018-12-22T02:05:50.101Z,85.10
2018-12-22T02:10:48.882Z,85.10
2018-12-22T02:15:47.649Z,84.80
2018-12-22T02:20:46.492Z,85.70
2018-12-22T02:25:45.184Z,85.00
2018-12-22T02:30:43.877Z,85.30
2018-12-22T02:35:42.725Z,85.40
2018-12-22T02:40:41.606Z,85.60
2018-12-22T02:45:40.342Z,85.70
2018-12-22T02:50:39.126Z,85.70
2018-12-22T02:55:37.834Z,85.40
2018-12-22T03:00:36.647Z,85.40
2018-12-22T03:05:35.410Z,85.50
2018-12-22T03:10:35.262Z,85.70
2018-12-22T03:15:34.091Z,85.50
2018-12-22T03:20:32.935Z,85.70
2018-12-22T03:25:31.751Z,85.90
2018-12-22T03:30:30.644Z,86.50
2018-12-22T03:35:29.610Z,85.90
2018-12-22T03:40:28.331Z,86.20
2018-12-22T03:45:27.098Z,86.00
2018-12-22T03:50:25.818Z,85.90
2018-12-22T03:55:24.529Z,85.90
2018-12-22T04:00:23.326Z,85.70
2018-12-22T04:05:22.125Z,85.50
2018-12-22T04:10:20.844Z,85.30
2018-12-22T04:15:19.619Z,85.30
2018-12-22T04:20:18.414Z,85.00
2018-12-22T04:25:17.190Z,84.80
2018-12-22T04:30:15.927Z,84.70
2018-12-22T04:35:14.656Z,85.10
2018-12-22T04:40:13.452Z,84.60
2018-12-22T04:45:12.175Z,84.50
2018-12-22T04:50:10.974Z,84.40
2018-12-22T04:55:09.867Z,84.40
2018-12-22T05:00:10.145Z,84.50
2018-12-22T05:05:08.968Z,84.40
2018-12-22T05:10:08.913Z,84.30
2018-12-22T05:15:08.514Z,84.20
2018-12-22T05:20:07.502Z,84.10
2018-12-22T05:25:06.310Z,84.00
2018-12-22T05:30:06.394Z,84.10
2018-12-22T05:35:05.415Z,84.00
2018-12-22T05:40:05.082Z,83.90
2018-12-22T05:45:03.974Z,84.10
2018-12-22T05:50:02.725Z,84.00
2018-12-22T05:55:01.475Z,83.90
2018-12-22T06:00:00.988Z,83.90
2018-12-22T06:04:59.754Z,83.80
2018-12-22T06:09:58.499Z,83.50
2018-12-22T06:14:57.242Z,83.60
2018-12-22T06:19:55.970Z,83.90
2018-12-22T06:24:54.746Z,83.80
2018-12-22T06:29:53.631Z,83.90
2018-12-22T06:34:52.454Z,83.90
2018-12-22T06:39:51.250Z,84.00
2018-12-22T06:44:50.031Z,84.10
2018-12-22T06:49:48.788Z,83.90
2018-12-22T06:54:47.579Z,83.90
2018-12-22T06:59:46.395Z,84.00
2018-12-22T07:04:45.131Z,84.10
2018-12-22T07:09:43.895Z,84.10
2018-12-22T07:14:42.630Z,84.30
2018-12-22T07:19:41.422Z,84.00
2018-12-22T07:24:40.184Z,84.10
2018-12-22T07:29:39.002Z,84.10
2018-12-22T07:34:37.949Z,84.30
2018-12-22T07:39:36.728Z,84.20
2018-12-22T07:44:35.474Z,84.10
2018-12-22T07:49:34.338Z,84.20
2018-12-22T07:54:33.092Z,84.20
2018-12-22T07:59:31.830Z,84.20
2018-12-22T08:04:30.566Z,84.20
2018-12-22T08:09:29.303Z,84.10
2018-12-22T08:14:28.302Z,84.20
2018-12-22T08:19:27.163Z,84.20
2018-12-22T08:24:26.623Z,84.40
2018-12-22T08:29:25.354Z,84.30
2018-12-22T08:34:24.195Z,84.10
2018-12-22T08:39:23.505Z,84.40
2018-12-22T08:44:22.281Z,84.40
2018-12-22T08:49:21.023Z,84.50
2018-12-22T08:54:19.743Z,84.70
2018-12-22T08:59:18.487Z,85.40
2018-12-22T09:04:17.243Z,84.60
2018-12-22T09:09:15.994Z,84.70
2018-12-22T09:14:14.727Z,84.80
2018-12-22T09:19:13.619Z,84.80
2018-12-22T09:24:12.350Z,84.60
2018-12-22T09:29:11.079Z,84.80
2018-12-22T09:34:13.453Z,84.70
2018-12-22T09:39:11.778Z,85.00
2018-12-22T09:44:10.607Z,84.90
2018-12-22T09:49:09.403Z,85.10
2018-12-22T09:54:08.183Z,85.20
2018-12-22T09:59:06.996Z,85.40
2018-12-22T10:04:05.985Z,85.50
2018-12-22T10:09:07.135Z,85.40
2018-12-22T10:14:05.888Z,85.40
2018-12-22T10:19:05.031Z,85.30
2018-12-22T10:24:03.859Z,85.40
2018-12-22T10:29:02.771Z,85.00
2018-12-22T10:34:01.586Z,84.90
2018-12-22T10:39:00.405Z,85.20
2018-12-22T10:43:59.224Z,85.40
2018-12-22T10:48:58.022Z,85.40
2018-12-22T10:53:57.774Z,85.40
2018-12-22T10:58:56.722Z,85.40
2018-12-22T11:03:55.519Z,85.40
2018-12-22T11:08:54.334Z,85.40
2018-12-22T11:13:53.064Z,85.40
2018-12-22T11:18:51.810Z,85.50
2018-12-22T11:23:50.579Z,85.50
2018-12-22T11:28:49.411Z,85.60
2018-12-22T11:33:48.170Z,85.80
2018-12-22T11:38:46.927Z,85.70
2018-12-22T11:43:45.831Z,85.80
2018-12-22T11:48:50.178Z,85.80
2018-12-22T11:53:48.928Z,85.80
2018-12-22T11:58:47.744Z,86.00
2018-12-22T12:03:46.477Z,86.00
2018-12-22T12:08:45.435Z,86.10
2018-12-22T12:13:45.222Z,86.10
2018-12-22T12:18:58.926Z,86.10
2018-12-22T12:23:57.790Z,86.90
2018-12-22T12:28:56.570Z,86.10
2018-12-22T12:33:55.606Z,87.00
2018-12-22T12:38:54.346Z,86.10
2018-12-22T12:43:53.295Z,86.10
2018-12-22T12:48:52.002Z,86.10
2018-12-22T12:53:50.994Z,86.10
2018-12-22T12:58:50.036Z,86.20
2018-12-22T13:03:48.723Z,86.90
2018-12-22T13:08:47.503Z,86.10
2018-12-22T13:14:03.822Z,86.30
2018-12-22T13:19:02.595Z,86.30
2018-12-22T13:24:01.326Z,86.30
2018-12-22T13:29:01.357Z,86.30
2018-12-22T13:34:00.107Z,86.30
2018-12-22T13:39:07.026Z,86.30
2018-12-22T13:44:05.855Z,86.30
2018-12-22T13:49:05.044Z,86.40
2018-12-22T13:54:03.999Z,86.40
2018-12-22T13:59:02.878Z,86.40
2018-12-22T14:04:01.678Z,86.40
2018-12-22T14:09:00.411Z,86.50
2018-12-22T14:13:59.578Z,86.70
2018-12-22T14:19:02.128Z,86.70
2018-12-22T14:24:21.558Z,86.60
2018-12-22T14:29:20.270Z,86.60
2018-12-22T14:34:25.357Z,86.40
2018-12-22T14:39:24.262Z,86.30
2018-12-22T14:44:22.994Z,86.30
2018-12-22T14:49:21.747Z,86.20
2018-12-22T14:54:20.458Z,86.20
2018-12-22T14:59:21.926Z,86.30
2018-12-22T15:04:20.971Z,86.20
2018-12-22T15:09:19.787Z,86.30
2018-12-22T15:14:18.522Z,86.20
2018-12-22T15:19:17.277Z,86.10
2018-12-22T15:24:16.054Z,86.00
2018-12-22T15:29:14.846Z,86.00
2018-12-22T15:34:13.618Z,86.10
2018-12-22T15:39:12.376Z,86.00
2018-12-22T15:44:11.186Z,86.10
2018-12-22T15:49:10.986Z,86.30
2018-12-22T15:54:09.831Z,86.20
2018-12-22T15:59:08.606Z,86.20
2018-12-22T16:04:07.463Z,86.20
2018-12-22T16:09:07.188Z,86.20
2018-12-22T16:14:06.009Z,86.30
2018-12-22T16:19:04.859Z,86.30
2018-12-22T16:24:03.719Z,86.30
2018-12-22T16:29:39.915Z,86.40
2018-12-22T16:34:38.675Z,86.40
2018-12-22T16:39:37.466Z,86.40
2018-12-22T16:44:36.212Z,86.30
2018-12-22T16:49:35.031Z,86.40
2018-12-22T16:54:33.848Z,86.30
2018-12-22T16:59:34.886Z,86.30
2018-12-22T17:04:33.730Z,86.30
2018-12-22T17:09:32.682Z,86.30
2018-12-22T17:14:31.495Z,86.50
2018-12-22T17:19:30.294Z,86.20
2018-12-22T17:24:41.179Z,86.20
2018-12-22T17:29:39.991Z,86.30
2018-12-22T17:34:38.711Z,86.10
2018-12-22T17:39:37.472Z,86.10
2018-12-22T17:44:36.171Z,86.10
2018-12-22T17:49:35.331Z,86.30
2018-12-22T17:54:34.215Z,86.20
2018-12-22T17:59:33.053Z,86.10
2018-12-22T18:04:31.868Z,86.30
2018-12-22T18:09:30.607Z,86.10
2018-12-22T18:14:29.338Z,86.10
2018-12-22T18:19:29.276Z,86.10
2018-12-22T18:24:28.116Z,86.10
2018-12-22T18:29:27.661Z,86.80
2018-12-22T18:34:26.517Z,86.00
2018-12-22T18:39:25.307Z,85.90
2018-12-22T18:44:24.021Z,85.70
2018-12-22T18:49:22.739Z,86.00
2018-12-22T18:54:21.570Z,85.80
2018-12-22T18:59:21.446Z,85.90
2018-12-22T19:04:20.187Z,86.10
2018-12-22T19:09:23.869Z,86.10
2018-12-22T19:14:22.690Z,86.20
2018-12-22T19:19:21.519Z,86.60
2018-12-22T19:24:20.232Z,86.50
2018-12-22T19:29:19.787Z,86.40
2018-12-22T19:34:18.514Z,86.40
2018-12-22T19:39:17.419Z,86.40
2018-12-22T19:44:16.166Z,86.60
2018-12-22T19:49:14.999Z,86.70
2018-12-22T19:54:13.836Z,86.70
2018-12-22T20:17:27.663Z,86.70
2018-12-22T20:22:26.419Z,87.30
2018-12-22T20:27:25.373Z,87.00
2018-12-22T20:32:24.290Z,86.90
2018-12-22T20:37:23.187Z,86.90
2018-12-22T20:42:21.937Z,86.90
2018-12-22T20:47:20.746Z,86.60
2018-12-22T20:52:19.618Z,86.20
2018-12-22T20:57:18.408Z,86.80
2018-12-22T21:02:17.156Z,86.70
2018-12-22T21:07:16.630Z,86.60
2018-12-22T21:12:15.446Z,86.70
2018-12-22T21:17:14.340Z,86.40
2018-12-22T21:22:13.102Z,86.50
2018-12-22T21:27:11.858Z,86.30
2018-12-22T21:32:10.654Z,86.40
2018-12-22T21:42:23.022Z,86.20
2018-12-22T21:47:21.750Z,86.30
2018-12-22T21:52:20.526Z,86.30
2018-12-22T21:57:19.350Z,86.10
2018-12-22T22:02:18.099Z,86.40
2018-12-22T22:07:16.982Z,86.40
2018-12-22T22:12:15.754Z,86.20
2018-12-22T22:17:14.594Z,86.20
2018-12-22T22:22:13.335Z,86.20
2018-12-22T22:27:12.207Z,86.40
2018-12-22T22:32:11.074Z,86.10
2018-12-22T22:37:09.847Z,86.10
2018-12-22T22:42:08.664Z,85.80
2018-12-22T22:47:07.426Z,86.10
2018-12-22T22:52:06.298Z,85.80
2018-12-22T22:57:05.095Z,85.70
2018-12-22T23:02:04.020Z,85.60
2018-12-22T23:07:02.750Z,85.40
2018-12-22T23:12:01.700Z,85.50
2018-12-22T23:17:00.571Z,85.80
2018-12-22T23:21:59.347Z,85.60
2018-12-22T23:26:58.118Z,85.60
2018-12-22T23:31:56.885Z,85.50
2018-12-22T23:36:55.830Z,85.60
2018-12-22T23:41:54.599Z,85.50
2018-12-22T23:46:53.338Z,85.60
2018-12-22T23:51:52.062Z,85.40
2018-12-22T23:56:50.798Z,85.70
